sensor_id;sensor_type;location;lat;lon;timestamp;P1;durP1;ratioP1;P2;durP2;ratioP2
38937;SDS011;24727;51.974;20.868;2022-07-29T00:01:15;10.75;;;5.05;;
38937;SDS011;24727;51.974;20.868;2022-07-29T00:03:41;9.10;;;5.15;;
38937;SDS011;24727;51.974;20.868;2022-07-29T00:06:14;10.05;;;5.53;;
38937;SDS011;24727;51.974;20.868;2022-07-29T00:08:40;7.97;;;4.80;;
38937;SDS011;24727;51.974;20.868;2022-07-29T00:11:06;5.43;;;4.30;;
38937;SDS011;24727;51.974;20.868;2022-07-29T00:13:33;5.05;;;4.22;;
38937;SDS011;24727;51.974;20.868;2022-07-29T00:15:59;6.57;;;4.90;;
38937;SDS011;24727;51.974;20.868;2022-07-29T00:18:24;7.78;;;4.75;;
38937;SDS011;24727;51.974;20.868;2022-07-29T00:20:50;6.03;;;4.57;;
38937;SDS011;24727;51.974;20.868;2022-07-29T00:23:16;4.93;;;3.85;;
38937;SDS011;24727;51.974;20.868;2022-07-29T00:25:53;6.38;;;4.72;;
38937;SDS011;24727;51.974;20.868;2022-07-29T00:28:20;6.22;;;5.32;;
38937;SDS011;24727;51.974;20.868;2022-07-29T00:30:46;12.57;;;5.32;;
38937;SDS011;24727;51.974;20.868;2022-07-29T00:33:12;5.90;;;4.18;;
38937;SDS011;24727;51.974;20.868;2022-07-29T00:35:38;11.18;;;3.97;;
38937;SDS011;24727;51.974;20.868;2022-07-29T00:40:38;12.15;;;5.57;;
38937;SDS011;24727;51.974;20.868;2022-07-29T00:43:05;6.50;;;4.53;;
38937;SDS011;24727;51.974;20.868;2022-07-29T00:45:31;11.00;;;7.55;;
38937;SDS011;24727;51.974;20.868;2022-07-29T00:47:58;12.15;;;7.20;;
38937;SDS011;24727;51.974;20.868;2022-07-29T00:50:26;13.15;;;6.85;;
38937;SDS011;24727;51.974;20.868;2022-07-29T00:52:52;9.35;;;5.43;;
38937;SDS011;24727;51.974;20.868;2022-07-29T00:55:18;7.45;;;4.97;;
38937;SDS011;24727;51.974;20.868;2022-07-29T00:57:45;7.00;;;4.65;;
38937;SDS011;24727;51.974;20.868;2022-07-29T01:00:14;8.10;;;4.20;;
38937;SDS011;24727;51.974;20.868;2022-07-29T01:02:50;8.25;;;5.18;;
38937;SDS011;24727;51.974;20.868;2022-07-29T01:05:18;5.38;;;4.32;;
38937;SDS011;24727;51.974;20.868;2022-07-29T01:07:46;7.45;;;4.75;;
38937;SDS011;24727;51.974;20.868;2022-07-29T01:10:15;7.57;;;5.60;;
38937;SDS011;24727;51.974;20.868;2022-07-29T01:12:43;11.55;;;5.90;;
38937;SDS011;24727;51.974;20.868;2022-07-29T01:15:13;7.40;;;5.60;;
38937;SDS011;24727;51.974;20.868;2022-07-29T01:31:19;11.75;;;6.22;;
38937;SDS011;24727;51.974;20.868;2022-07-29T01:33:57;9.27;;;5.60;;
38937;SDS011;24727;51.974;20.868;2022-07-29T01:36:43;10.13;;;5.78;;
38937;SDS011;24727;51.974;20.868;2022-07-29T01:39:14;8.48;;;5.25;;
38937;SDS011;24727;51.974;20.868;2022-07-29T01:42:05;8.10;;;5.60;;
38937;SDS011;24727;51.974;20.868;2022-07-29T01:44:35;6.88;;;4.82;;
38937;SDS011;24727;51.974;20.868;2022-07-29T01:47:17;9.30;;;5.53;;
38937;SDS011;24727;51.974;20.868;2022-07-29T01:49:50;10.05;;;5.43;;
38937;SDS011;24727;51.974;20.868;2022-07-29T01:52:20;7.68;;;5.32;;
38937;SDS011;24727;51.974;20.868;2022-07-29T01:54:58;6.50;;;5.40;;
38937;SDS011;24727;51.974;20.868;2022-07-29T01:57:28;7.18;;;4.60;;
38937;SDS011;24727;51.974;20.868;2022-07-29T01:59:57;7.97;;;5.28;;
38937;SDS011;24727;51.974;20.868;2022-07-29T02:02:25;9.60;;;5.20;;
38937;SDS011;24727;51.974;20.868;2022-07-29T02:04:54;6.85;;;5.03;;
38937;SDS011;24727;51.974;20.868;2022-07-29T02:07:22;7.32;;;5.40;;
38937;SDS011;24727;51.974;20.868;2022-07-29T02:09:50;4.85;;;3.80;;
38937;SDS011;24727;51.974;20.868;2022-07-29T02:12:18;7.75;;;5.35;;
38937;SDS011;24727;51.974;20.868;2022-07-29T02:14:50;7.10;;;4.60;;
38937;SDS011;24727;51.974;20.868;2022-07-29T02:17:21;6.85;;;4.75;;
38937;SDS011;24727;51.974;20.868;2022-07-29T02:19:56;10.88;;;4.50;;
38937;SDS011;24727;51.974;20.868;2022-07-29T02:22:25;9.07;;;5.10;;
38937;SDS011;24727;51.974;20.868;2022-07-29T02:24:55;7.47;;;5.47;;
38937;SDS011;24727;51.974;20.868;2022-07-29T02:27:22;6.63;;;5.18;;
38937;SDS011;24727;51.974;20.868;2022-07-29T02:29:52;8.30;;;5.57;;
38937;SDS011;24727;51.974;20.868;2022-07-29T02:32:19;7.90;;;5.68;;
38937;SDS011;24727;51.974;20.868;2022-07-29T02:34:47;7.07;;;4.78;;
38937;SDS011;24727;51.974;20.868;2022-07-29T02:37:15;8.65;;;4.75;;
38937;SDS011;24727;51.974;20.868;2022-07-29T02:39:44;8.60;;;4.68;;
38937;SDS011;24727;51.974;20.868;2022-07-29T02:42:13;8.73;;;5.30;;
38937;SDS011;24727;51.974;20.868;2022-07-29T02:44:41;7.53;;;4.63;;
38937;SDS011;24727;51.974;20.868;2022-07-29T02:47:13;9.15;;;5.07;;
38937;SDS011;24727;51.974;20.868;2022-07-29T02:49:43;5.72;;;4.47;;
38937;SDS011;24727;51.974;20.868;2022-07-29T02:55:25;7.95;;;4.53;;
38937;SDS011;24727;51.974;20.868;2022-07-29T03:00:23;7.65;;;4.57;;
38937;SDS011;24727;51.974;20.868;2022-07-29T03:02:55;7.55;;;4.43;;
38937;SDS011;24727;51.974;20.868;2022-07-29T03:05:23;4.82;;;3.90;;
38937;SDS011;24727;51.974;20.868;2022-07-29T03:08:04;9.10;;;4.90;;
38937;SDS011;24727;51.974;20.868;2022-07-29T03:10:32;6.70;;;4.22;;
38937;SDS011;24727;51.974;20.868;2022-07-29T03:12:59;8.57;;;4.03;;
38937;SDS011;24727;51.974;20.868;2022-07-29T03:15:27;8.70;;;4.20;;
38937;SDS011;24727;51.974;20.868;2022-07-29T03:17:54;6.95;;;4.90;;
38937;SDS011;24727;51.974;20.868;2022-07-29T03:20:21;7.90;;;5.47;;
38937;SDS011;24727;51.974;20.868;2022-07-29T03:22:47;6.82;;;4.53;;
38937;SDS011;24727;51.974;20.868;2022-07-29T03:25:14;6.82;;;4.40;;
38937;SDS011;24727;51.974;20.868;2022-07-29T03:27:44;6.20;;;4.57;;
38937;SDS011;24727;51.974;20.868;2022-07-29T03:30:12;7.40;;;4.85;;
38937;SDS011;24727;51.974;20.868;2022-07-29T03:32:38;10.15;;;5.15;;
38937;SDS011;24727;51.974;20.868;2022-07-29T03:35:06;5.43;;;3.95;;
38937;SDS011;24727;51.974;20.868;2022-07-29T03:37:33;5.65;;;4.45;;
38937;SDS011;24727;51.974;20.868;2022-07-29T03:40:02;6.93;;;4.82;;
38937;SDS011;24727;51.974;20.868;2022-07-29T03:42:31;6.90;;;4.50;;
38937;SDS011;24727;51.974;20.868;2022-07-29T03:45:00;8.73;;;4.60;;
38937;SDS011;24727;51.974;20.868;2022-07-29T03:47:30;6.15;;;4.68;;
38937;SDS011;24727;51.974;20.868;2022-07-29T03:50:06;7.10;;;4.93;;
38937;SDS011;24727;51.974;20.868;2022-07-29T03:52:36;10.77;;;4.95;;
38937;SDS011;24727;51.974;20.868;2022-07-29T03:55:02;6.65;;;4.78;;
38937;SDS011;24727;51.974;20.868;2022-07-29T03:57:29;5.35;;;4.13;;
38937;SDS011;24727;51.974;20.868;2022-07-29T03:59:57;12.30;;;4.32;;
38937;SDS011;24727;51.974;20.868;2022-07-29T04:02:24;9.90;;;4.88;;
38937;SDS011;24727;51.974;20.868;2022-07-29T04:04:50;10.77;;;5.90;;
38937;SDS011;24727;51.974;20.868;2022-07-29T04:07:24;6.57;;;4.78;;
38937;SDS011;24727;51.974;20.868;2022-07-29T04:09:51;9.05;;;5.18;;
38937;SDS011;24727;51.974;20.868;2022-07-29T04:12:16;9.07;;;5.22;;
38937;SDS011;24727;51.974;20.868;2022-07-29T04:14:42;11.55;;;6.10;;
38937;SDS011;24727;51.974;20.868;2022-07-29T04:17:10;11.43;;;6.05;;
38937;SDS011;24727;51.974;20.868;2022-07-29T04:19:36;8.23;;;5.97;;
38937;SDS011;24727;51.974;20.868;2022-07-29T04:22:02;8.25;;;4.78;;
38937;SDS011;24727;51.974;20.868;2022-07-29T04:24:28;7.88;;;5.18;;
38937;SDS011;24727;51.974;20.868;2022-07-29T04:26:55;6.97;;;4.82;;
38937;SDS011;24727;51.974;20.868;2022-07-29T04:29:21;6.30;;;4.82;;
38937;SDS011;24727;51.974;20.868;2022-07-29T04:31:47;10.60;;;5.63;;
38937;SDS011;24727;51.974;20.868;2022-07-29T04:34:13;7.25;;;4.53;;
38937;SDS011;24727;51.974;20.868;2022-07-29T04:36:39;6.75;;;4.43;;
38937;SDS011;24727;51.974;20.868;2022-07-29T04:39:06;6.90;;;4.32;;
38937;SDS011;24727;51.974;20.868;2022-07-29T04:41:32;7.32;;;4.70;;
38937;SDS011;24727;51.974;20.868;2022-07-29T04:43:58;5.85;;;4.50;;
38937;SDS011;24727;51.974;20.868;2022-07-29T04:46:26;6.88;;;4.80;;
38937;SDS011;24727;51.974;20.868;2022-07-29T04:48:53;5.90;;;4.65;;
38937;SDS011;24727;51.974;20.868;2022-07-29T04:51:20;7.72;;;5.15;;
38937;SDS011;24727;51.974;20.868;2022-07-29T04:56:18;8.80;;;4.45;;
38937;SDS011;24727;51.974;20.868;2022-07-29T04:58:46;9.13;;;5.07;;
38937;SDS011;24727;51.974;20.868;2022-07-29T05:01:12;7.72;;;4.80;;
38937;SDS011;24727;51.974;20.868;2022-07-29T05:03:39;4.68;;;3.60;;
38937;SDS011;24727;51.974;20.868;2022-07-29T05:06:05;5.57;;;4.00;;
38937;SDS011;24727;51.974;20.868;2022-07-29T05:08:31;5.50;;;4.30;;
38937;SDS011;24727;51.974;20.868;2022-07-29T05:10:58;5.57;;;3.75;;
38937;SDS011;24727;51.974;20.868;2022-07-29T05:13:24;6.50;;;3.70;;
38937;SDS011;24727;51.974;20.868;2022-07-29T05:15:50;5.32;;;3.60;;
38937;SDS011;24727;51.974;20.868;2022-07-29T05:18:16;4.07;;;2.95;;
38937;SDS011;24727;51.974;20.868;2022-07-29T05:20:42;6.32;;;3.22;;
38937;SDS011;24727;51.974;20.868;2022-07-29T05:23:08;10.25;;;3.65;;
38937;SDS011;24727;51.974;20.868;2022-07-29T05:25:35;7.07;;;3.05;;
38937;SDS011;24727;51.974;20.868;2022-07-29T05:28:02;4.05;;;2.70;;
38937;SDS011;24727;51.974;20.868;2022-07-29T05:30:28;3.17;;;2.13;;
38937;SDS011;24727;51.974;20.868;2022-07-29T05:32:54;3.97;;;2.60;;
38937;SDS011;24727;51.974;20.868;2022-07-29T05:35:20;4.85;;;2.58;;
38937;SDS011;24727;51.974;20.868;2022-07-29T05:37:46;5.72;;;2.40;;
38937;SDS011;24727;51.974;20.868;2022-07-29T05:40:12;3.97;;;2.30;;
38937;SDS011;24727;51.974;20.868;2022-07-29T05:42:40;3.47;;;2.30;;
38937;SDS011;24727;51.974;20.868;2022-07-29T05:45:06;2.63;;;2.15;;
38937;SDS011;24727;51.974;20.868;2022-07-29T05:47:33;4.15;;;2.53;;
38937;SDS011;24727;51.974;20.868;2022-07-29T05:49:59;5.88;;;2.50;;
38937;SDS011;24727;51.974;20.868;2022-07-29T05:52:25;4.57;;;1.80;;
38937;SDS011;24727;51.974;20.868;2022-07-29T05:54:52;3.05;;;1.73;;
38937;SDS011;24727;51.974;20.868;2022-07-29T05:57:19;2.65;;;2.10;;
38937;SDS011;24727;51.974;20.868;2022-07-29T05:59:48;2.45;;;1.90;;
38937;SDS011;24727;51.974;20.868;2022-07-29T06:02:16;3.78;;;2.15;;
38937;SDS011;24727;51.974;20.868;2022-07-29T06:04:43;2.75;;;2.08;;
38937;SDS011;24727;51.974;20.868;2022-07-29T06:07:10;4.57;;;1.75;;
38937;SDS011;24727;51.974;20.868;2022-07-29T06:09:36;10.85;;;1.73;;
38937;SDS011;24727;51.974;20.868;2022-07-29T06:12:03;2.03;;;1.70;;
38937;SDS011;24727;51.974;20.868;2022-07-29T06:14:30;1.90;;;1.75;;
38937;SDS011;24727;51.974;20.868;2022-07-29T06:16:57;5.55;;;2.20;;
38937;SDS011;24727;51.974;20.868;2022-07-29T06:19:23;2.05;;;1.60;;
38937;SDS011;24727;51.974;20.868;2022-07-29T06:21:50;5.65;;;1.80;;
38937;SDS011;24727;51.974;20.868;2022-07-29T06:24:16;1.83;;;1.58;;
38937;SDS011;24727;51.974;20.868;2022-07-29T06:26:44;2.60;;;1.67;;
38937;SDS011;24727;51.974;20.868;2022-07-29T06:29:10;2.90;;;1.40;;
38937;SDS011;24727;51.974;20.868;2022-07-29T06:31:37;2.75;;;1.55;;
38937;SDS011;24727;51.974;20.868;2022-07-29T06:34:03;1.40;;;1.30;;
38937;SDS011;24727;51.974;20.868;2022-07-29T06:36:33;2.35;;;1.15;;
38937;SDS011;24727;51.974;20.868;2022-07-29T06:39:00;2.53;;;1.42;;
38937;SDS011;24727;51.974;20.868;2022-07-29T06:41:26;4.40;;;1.50;;
38937;SDS011;24727;51.974;20.868;2022-07-29T06:43:52;4.15;;;1.45;;
38937;SDS011;24727;51.974;20.868;2022-07-29T06:46:19;4.35;;;1.50;;
38937;SDS011;24727;51.974;20.868;2022-07-29T06:48:46;2.95;;;1.42;;
38937;SDS011;24727;51.974;20.868;2022-07-29T06:51:15;1.38;;;1.20;;
38937;SDS011;24727;51.974;20.868;2022-07-29T06:53:41;1.58;;;0.90;;
38937;SDS011;24727;51.974;20.868;2022-07-29T06:56:09;4.43;;;1.25;;
38937;SDS011;24727;51.974;20.868;2022-07-29T06:58:35;2.58;;;1.20;;
38937;SDS011;24727;51.974;20.868;2022-07-29T07:01:02;2.38;;;1.33;;
38937;SDS011;24727;51.974;20.868;2022-07-29T07:03:32;1.45;;;1.20;;
38937;SDS011;24727;51.974;20.868;2022-07-29T07:05:58;1.75;;;1.20;;
38937;SDS011;24727;51.974;20.868;2022-07-29T07:08:24;2.80;;;1.40;;
38937;SDS011;24727;51.974;20.868;2022-07-29T07:10:51;3.72;;;1.42;;
38937;SDS011;24727;51.974;20.868;2022-07-29T07:13:20;4.50;;;0.98;;
38937;SDS011;24727;51.974;20.868;2022-07-29T07:15:47;2.90;;;1.08;;
38937;SDS011;24727;51.974;20.868;2022-07-29T07:18:14;2.65;;;1.45;;
38937;SDS011;24727;51.974;20.868;2022-07-29T07:20:42;1.98;;;0.90;;
38937;SDS011;24727;51.974;20.868;2022-07-29T07:23:09;2.53;;;1.27;;
38937;SDS011;24727;51.974;20.868;2022-07-29T07:25:36;2.05;;;1.40;;
38937;SDS011;24727;51.974;20.868;2022-07-29T07:28:03;2.95;;;1.45;;
38937;SDS011;24727;51.974;20.868;2022-07-29T07:30:29;2.00;;;1.27;;
38937;SDS011;24727;51.974;20.868;2022-07-29T07:32:55;2.47;;;1.10;;
38937;SDS011;24727;51.974;20.868;2022-07-29T07:35:27;3.50;;;1.33;;
38937;SDS011;24727;51.974;20.868;2022-07-29T07:37:54;1.30;;;1.20;;
38937;SDS011;24727;51.974;20.868;2022-07-29T07:40:21;2.38;;;1.15;;
38937;SDS011;24727;51.974;20.868;2022-07-29T07:42:47;1.73;;;0.77;;
38937;SDS011;24727;51.974;20.868;2022-07-29T07:45:13;2.17;;;1.05;;
38937;SDS011;24727;51.974;20.868;2022-07-29T07:47:40;0.98;;;0.77;;
38937;SDS011;24727;51.974;20.868;2022-07-29T07:50:08;1.65;;;1.08;;
38937;SDS011;24727;51.974;20.868;2022-07-29T07:52:45;2.05;;;1.10;;
38937;SDS011;24727;51.974;20.868;2022-07-29T07:55:16;3.08;;;1.02;;
38937;SDS011;24727;51.974;20.868;2022-07-29T07:57:43;4.75;;;0.80;;
38937;SDS011;24727;51.974;20.868;2022-07-29T08:00:09;1.88;;;0.70;;
38937;SDS011;24727;51.974;20.868;2022-07-29T08:02:37;1.75;;;1.05;;
38937;SDS011;24727;51.974;20.868;2022-07-29T08:05:06;2.40;;;1.00;;
38937;SDS011;24727;51.974;20.868;2022-07-29T08:07:33;4.55;;;1.10;;
38937;SDS011;24727;51.974;20.868;2022-07-29T08:09:59;1.92;;;0.90;;
38937;SDS011;24727;51.974;20.868;2022-07-29T08:12:25;1.92;;;0.80;;
38937;SDS011;24727;51.974;20.868;2022-07-29T08:14:51;1.05;;;0.88;;
38937;SDS011;24727;51.974;20.868;2022-07-29T08:17:19;3.35;;;0.88;;
38937;SDS011;24727;51.974;20.868;2022-07-29T08:19:45;2.90;;;0.60;;
38937;SDS011;24727;51.974;20.868;2022-07-29T08:22:13;1.33;;;0.90;;
38937;SDS011;24727;51.974;20.868;2022-07-29T08:24:39;2.05;;;0.60;;
38937;SDS011;24727;51.974;20.868;2022-07-29T08:27:10;2.33;;;0.70;;
38937;SDS011;24727;51.974;20.868;2022-07-29T08:29:37;0.75;;;0.68;;
38937;SDS011;24727;51.974;20.868;2022-07-29T08:32:04;3.17;;;0.80;;
38937;SDS011;24727;51.974;20.868;2022-07-29T08:34:30;3.42;;;0.90;;
38937;SDS011;24727;51.974;20.868;2022-07-29T08:36:57;1.73;;;0.73;;
38937;SDS011;24727;51.974;20.868;2022-07-29T08:39:24;2.40;;;0.82;;
38937;SDS011;24727;51.974;20.868;2022-07-29T08:41:50;4.07;;;1.10;;
38937;SDS011;24727;51.974;20.868;2022-07-29T08:44:18;2.03;;;1.00;;
38937;SDS011;24727;51.974;20.868;2022-07-29T08:46:54;3.60;;;0.70;;
38937;SDS011;24727;51.974;20.868;2022-07-29T08:49:21;2.15;;;0.60;;
38937;SDS011;24727;51.974;20.868;2022-07-29T08:51:47;1.27;;;0.80;;
38937;SDS011;24727;51.974;20.868;2022-07-29T08:54:16;2.00;;;0.70;;
38937;SDS011;24727;51.974;20.868;2022-07-29T08:56:44;3.03;;;0.95;;
38937;SDS011;24727;51.974;20.868;2022-07-29T08:59:16;6.53;;;0.75;;
38937;SDS011;24727;51.974;20.868;2022-07-29T09:01:46;1.75;;;0.70;;
38937;SDS011;24727;51.974;20.868;2022-07-29T09:04:13;2.20;;;0.90;;
38937;SDS011;24727;51.974;20.868;2022-07-29T09:06:46;2.95;;;1.05;;
38937;SDS011;24727;51.974;20.868;2022-07-29T09:09:20;5.43;;;0.80;;
38937;SDS011;24727;51.974;20.868;2022-07-29T09:11:47;1.25;;;0.60;;
38937;SDS011;24727;51.974;20.868;2022-07-29T09:14:19;2.58;;;0.80;;
38937;SDS011;24727;51.974;20.868;2022-07-29T09:19:29;1.40;;;0.60;;
38937;SDS011;24727;51.974;20.868;2022-07-29T09:21:57;1.35;;;0.75;;
38937;SDS011;24727;51.974;20.868;2022-07-29T09:24:42;1.27;;;0.65;;
38937;SDS011;24727;51.974;20.868;2022-07-29T09:27:11;0.93;;;0.63;;
38937;SDS011;24727;51.974;20.868;2022-07-29T09:32:24;1.23;;;0.65;;
38937;SDS011;24727;51.974;20.868;2022-07-29T09:34:54;1.17;;;0.88;;
38937;SDS011;24727;51.974;20.868;2022-07-29T09:37:45;2.22;;;0.80;;
38937;SDS011;24727;51.974;20.868;2022-07-29T09:40:19;3.53;;;0.75;;
38937;SDS011;24727;51.974;20.868;2022-07-29T09:42:49;3.10;;;0.95;;
38937;SDS011;24727;51.974;20.868;2022-07-29T09:48:17;2.55;;;1.33;;
38937;SDS011;24727;51.974;20.868;2022-07-29T09:50:49;2.95;;;0.80;;
38937;SDS011;24727;51.974;20.868;2022-07-29T09:56:05;0.77;;;0.60;;
38937;SDS011;24727;51.974;20.868;2022-07-29T09:58:32;2.83;;;1.05;;
38937;SDS011;24727;51.974;20.868;2022-07-29T10:01:02;5.25;;;1.40;;
38937;SDS011;24727;51.974;20.868;2022-07-29T10:03:29;4.22;;;1.83;;
38937;SDS011;24727;51.974;20.868;2022-07-29T10:06:08;12.15;;;2.22;;
38937;SDS011;24727;51.974;20.868;2022-07-29T10:08:36;1.75;;;0.63;;
38937;SDS011;24727;51.974;20.868;2022-07-29T10:11:15;1.70;;;0.70;;
38937;SDS011;24727;51.974;20.868;2022-07-29T10:13:43;3.88;;;0.85;;
38937;SDS011;24727;51.974;20.868;2022-07-29T10:16:12;3.70;;;0.77;;
38937;SDS011;24727;51.974;20.868;2022-07-29T10:18:40;1.02;;;0.77;;
38937;SDS011;24727;51.974;20.868;2022-07-29T10:21:09;4.45;;;0.80;;
38937;SDS011;24727;51.974;20.868;2022-07-29T10:23:36;2.55;;;0.80;;
38937;SDS011;24727;51.974;20.868;2022-07-29T10:26:04;1.42;;;0.80;;
38937;SDS011;24727;51.974;20.868;2022-07-29T10:28:30;0.65;;;0.47;;
38937;SDS011;24727;51.974;20.868;2022-07-29T10:31:06;1.95;;;0.85;;
38937;SDS011;24727;51.974;20.868;2022-07-29T10:36:07;1.98;;;0.57;;
38937;SDS011;24727;51.974;20.868;2022-07-29T10:39:05;2.30;;;1.00;;
38937;SDS011;24727;51.974;20.868;2022-07-29T10:41:45;1.27;;;0.50;;
38937;SDS011;24727;51.974;20.868;2022-07-29T10:44:50;4.88;;;0.80;;
38937;SDS011;24727;51.974;20.868;2022-07-29T10:47:24;1.90;;;0.80;;
38937;SDS011;24727;51.974;20.868;2022-07-29T10:49:56;2.50;;;0.70;;
38937;SDS011;24727;51.974;20.868;2022-07-29T10:53:13;3.63;;;0.80;;
38937;SDS011;24727;51.974;20.868;2022-07-29T10:55:56;1.70;;;0.65;;
38937;SDS011;24727;51.974;20.868;2022-07-29T10:58:17;2.95;;;0.60;;
38937;SDS011;24727;51.974;20.868;2022-07-29T11:06:07;1.73;;;0.50;;
38937;SDS011;24727;51.974;20.868;2022-07-29T11:08:33;0.98;;;0.50;;
38937;SDS011;24727;51.974;20.868;2022-07-29T11:13:53;2.63;;;0.50;;
38937;SDS011;24727;51.974;20.868;2022-07-29T11:16:23;0.93;;;0.50;;
38937;SDS011;24727;51.974;20.868;2022-07-29T11:21:39;4.68;;;0.73;;
38937;SDS011;24727;51.974;20.868;2022-07-29T11:24:14;1.65;;;0.50;;
38937;SDS011;24727;51.974;20.868;2022-07-29T11:27:06;0.88;;;0.60;;
38937;SDS011;24727;51.974;20.868;2022-07-29T11:29:35;3.10;;;0.65;;
38937;SDS011;24727;51.974;20.868;2022-07-29T11:32:10;0.85;;;0.50;;
38937;SDS011;24727;51.974;20.868;2022-07-29T11:34:37;2.97;;;0.55;;
38937;SDS011;24727;51.974;20.868;2022-07-29T11:39:41;3.85;;;0.40;;
38937;SDS011;24727;51.974;20.868;2022-07-29T11:47:32;1.55;;;0.52;;
38937;SDS011;24727;51.974;20.868;2022-07-29T11:50:32;1.35;;;0.63;;
38937;SDS011;24727;51.974;20.868;2022-07-29T11:53:02;1.48;;;0.60;;
38937;SDS011;24727;51.974;20.868;2022-07-29T11:55:37;2.80;;;0.65;;
38937;SDS011;24727;51.974;20.868;2022-07-29T11:58:05;1.63;;;0.60;;
38937;SDS011;24727;51.974;20.868;2022-07-29T12:00:32;3.38;;;0.60;;
38937;SDS011;24727;51.974;20.868;2022-07-29T12:03:10;1.25;;;0.40;;
38937;SDS011;24727;51.974;20.868;2022-07-29T12:08:08;0.85;;;0.50;;
38937;SDS011;24727;51.974;20.868;2022-07-29T12:10:37;2.55;;;0.70;;
38937;SDS011;24727;51.974;20.868;2022-07-29T12:13:04;1.00;;;0.60;;
38937;SDS011;24727;51.974;20.868;2022-07-29T12:15:31;1.90;;;0.63;;
38937;SDS011;24727;51.974;20.868;2022-07-29T12:17:57;2.53;;;0.60;;
38937;SDS011;24727;51.974;20.868;2022-07-29T12:20:28;4.78;;;0.80;;
38937;SDS011;24727;51.974;20.868;2022-07-29T12:22:55;2.63;;;0.73;;
38937;SDS011;24727;51.974;20.868;2022-07-29T12:25:24;0.52;;;0.50;;
38937;SDS011;24727;51.974;20.868;2022-07-29T12:27:59;0.68;;;0.47;;
38937;SDS011;24727;51.974;20.868;2022-07-29T12:30:42;1.02;;;0.55;;
38937;SDS011;24727;51.974;20.868;2022-07-29T12:35:43;1.75;;;0.47;;
38937;SDS011;24727;51.974;20.868;2022-07-29T12:38:11;0.68;;;0.50;;
38937;SDS011;24727;51.974;20.868;2022-07-29T12:40:38;4.25;;;0.57;;
38937;SDS011;24727;51.974;20.868;2022-07-29T12:43:05;1.02;;;0.60;;
38937;SDS011;24727;51.974;20.868;2022-07-29T12:45:40;3.13;;;0.68;;
38937;SDS011;24727;51.974;20.868;2022-07-29T12:48:07;8.00;;;0.52;;
38937;SDS011;24727;51.974;20.868;2022-07-29T12:50:35;2.15;;;0.50;;
38937;SDS011;24727;51.974;20.868;2022-07-29T12:53:11;1.52;;;1.00;;
38937;SDS011;24727;51.974;20.868;2022-07-29T12:55:46;3.20;;;0.73;;
38937;SDS011;24727;51.974;20.868;2022-07-29T12:58:34;1.33;;;0.73;;
38937;SDS011;24727;51.974;20.868;2022-07-29T13:01:12;3.20;;;0.73;;
38937;SDS011;24727;51.974;20.868;2022-07-29T13:03:51;3.03;;;0.50;;
38937;SDS011;24727;51.974;20.868;2022-07-29T13:06:40;1.33;;;0.40;;
38937;SDS011;24727;51.974;20.868;2022-07-29T13:09:11;0.88;;;0.43;;
38937;SDS011;24727;51.974;20.868;2022-07-29T13:11:41;2.42;;;0.45;;
38937;SDS011;24727;51.974;20.868;2022-07-29T13:14:10;2.35;;;0.60;;
38937;SDS011;24727;51.974;20.868;2022-07-29T13:16:59;1.42;;;0.80;;
38937;SDS011;24727;51.974;20.868;2022-07-29T13:19:45;1.90;;;0.77;;
38937;SDS011;24727;51.974;20.868;2022-07-29T13:22:17;1.23;;;0.50;;
38937;SDS011;24727;51.974;20.868;2022-07-29T13:25:03;3.53;;;0.73;;
38937;SDS011;24727;51.974;20.868;2022-07-29T13:27:32;0.88;;;0.45;;
38937;SDS011;24727;51.974;20.868;2022-07-29T13:30:03;1.15;;;0.50;;
38937;SDS011;24727;51.974;20.868;2022-07-29T13:32:34;1.83;;;0.63;;
38937;SDS011;24727;51.974;20.868;2022-07-29T13:35:05;3.20;;;0.50;;
38937;SDS011;24727;51.974;20.868;2022-07-29T13:37:33;2.80;;;0.50;;
38937;SDS011;24727;51.974;20.868;2022-07-29T13:40:03;3.10;;;0.57;;
38937;SDS011;24727;51.974;20.868;2022-07-29T13:42:31;4.75;;;0.93;;
38937;SDS011;24727;51.974;20.868;2022-07-29T13:44:58;1.05;;;0.65;;
38937;SDS011;24727;51.974;20.868;2022-07-29T13:47:25;1.80;;;0.68;;
38937;SDS011;24727;51.974;20.868;2022-07-29T13:49:52;4.40;;;0.70;;
38937;SDS011;24727;51.974;20.868;2022-07-29T13:52:19;4.32;;;0.65;;
38937;SDS011;24727;51.974;20.868;2022-07-29T13:54:48;0.57;;;0.40;;
38937;SDS011;24727;51.974;20.868;2022-07-29T13:57:14;4.05;;;0.40;;
38937;SDS011;24727;51.974;20.868;2022-07-29T13:59:41;1.58;;;0.40;;
38937;SDS011;24727;51.974;20.868;2022-07-29T14:02:08;0.60;;;0.50;;
38937;SDS011;24727;51.974;20.868;2022-07-29T14:04:35;1.88;;;0.50;;
38937;SDS011;24727;51.974;20.868;2022-07-29T14:07:01;3.30;;;0.50;;
38937;SDS011;24727;51.974;20.868;2022-07-29T14:09:28;0.60;;;0.50;;
38937;SDS011;24727;51.974;20.868;2022-07-29T14:11:55;1.30;;;0.70;;
38937;SDS011;24727;51.974;20.868;2022-07-29T14:14:21;0.57;;;0.50;;
38937;SDS011;24727;51.974;20.868;2022-07-29T14:16:47;2.75;;;0.63;;
38937;SDS011;24727;51.974;20.868;2022-07-29T14:19:14;1.75;;;0.47;;
38937;SDS011;24727;51.974;20.868;2022-07-29T14:21:40;1.10;;;0.50;;
38937;SDS011;24727;51.974;20.868;2022-07-29T14:24:06;3.40;;;0.70;;
38937;SDS011;24727;51.974;20.868;2022-07-29T14:26:33;2.38;;;0.65;;
38937;SDS011;24727;51.974;20.868;2022-07-29T14:28:59;2.72;;;0.50;;
38937;SDS011;24727;51.974;20.868;2022-07-29T14:31:25;2.92;;;0.65;;
38937;SDS011;24727;51.974;20.868;2022-07-29T14:33:50;4.70;;;0.88;;
38937;SDS011;24727;51.974;20.868;2022-07-29T14:36:16;1.30;;;0.52;;
38937;SDS011;24727;51.974;20.868;2022-07-29T14:38:42;1.75;;;0.63;;
38937;SDS011;24727;51.974;20.868;2022-07-29T14:41:08;2.83;;;0.63;;
38937;SDS011;24727;51.974;20.868;2022-07-29T14:46:05;1.13;;;0.40;;
38937;SDS011;24727;51.974;20.868;2022-07-29T14:48:33;1.05;;;0.60;;
38937;SDS011;24727;51.974;20.868;2022-07-29T14:50:59;2.10;;;0.75;;
38937;SDS011;24727;51.974;20.868;2022-07-29T14:53:26;5.80;;;0.82;;
38937;SDS011;24727;51.974;20.868;2022-07-29T14:55:53;2.90;;;0.50;;
38937;SDS011;24727;51.974;20.868;2022-07-29T14:58:18;2.13;;;0.70;;
38937;SDS011;24727;51.974;20.868;2022-07-29T15:00:47;1.23;;;0.60;;
38937;SDS011;24727;51.974;20.868;2022-07-29T15:03:13;2.08;;;0.65;;
38937;SDS011;24727;51.974;20.868;2022-07-29T15:05:40;1.30;;;0.85;;
38937;SDS011;24727;51.974;20.868;2022-07-29T15:08:06;1.95;;;0.60;;
38937;SDS011;24727;51.974;20.868;2022-07-29T15:10:33;1.92;;;0.57;;
38937;SDS011;24727;51.974;20.868;2022-07-29T15:13:01;4.32;;;0.68;;
38937;SDS011;24727;51.974;20.868;2022-07-29T15:15:27;0.80;;;0.50;;
38937;SDS011;24727;51.974;20.868;2022-07-29T15:17:53;2.90;;;0.60;;
38937;SDS011;24727;51.974;20.868;2022-07-29T15:20:20;1.75;;;0.70;;
38937;SDS011;24727;51.974;20.868;2022-07-29T15:22:49;8.90;;;0.70;;
38937;SDS011;24727;51.974;20.868;2022-07-29T15:25:15;2.13;;;0.60;;
38937;SDS011;24727;51.974;20.868;2022-07-29T15:27:41;1.02;;;0.52;;
38937;SDS011;24727;51.974;20.868;2022-07-29T15:30:07;9.90;;;0.80;;
38937;SDS011;24727;51.974;20.868;2022-07-29T15:32:34;1.08;;;0.60;;
38937;SDS011;24727;51.974;20.868;2022-07-29T15:34:59;1.33;;;0.60;;
38937;SDS011;24727;51.974;20.868;2022-07-29T15:37:26;2.00;;;0.50;;
38937;SDS011;24727;51.974;20.868;2022-07-29T15:39:53;2.38;;;0.80;;
38937;SDS011;24727;51.974;20.868;2022-07-29T15:42:21;1.88;;;0.60;;
38937;SDS011;24727;51.974;20.868;2022-07-29T15:44:47;1.10;;;0.77;;
38937;SDS011;24727;51.974;20.868;2022-07-29T15:47:13;2.58;;;0.60;;
38937;SDS011;24727;51.974;20.868;2022-07-29T15:49:39;2.40;;;0.60;;